createdAt,value
2022-12-14T00:01:45.044Z,77.18
2022-12-14T00:04:16.239Z,76.13
2022-12-14T00:06:43.092Z,75.54
2022-12-14T00:09:09.941Z,77.79
2022-12-14T00:11:36.788Z,77.85
2022-12-14T00:14:04.661Z,76.33
2022-12-14T00:16:34.376Z,74.38
2022-12-14T00:19:02.783Z,74.70
2022-12-14T00:21:29.756Z,72.93
2022-12-14T00:23:58.854Z,75.11
2022-12-14T00:26:28.895Z,77.40
2022-12-14T00:28:57.897Z,77.30
2022-12-14T00:31:25.574Z,77.45
2022-12-14T00:33:53.062Z,77.68
2022-12-14T00:36:20.442Z,78.64
2022-12-14T00:38:47.449Z,78.91
2022-12-14T00:41:14.427Z,79.03
2022-12-14T00:43:41.529Z,78.32
2022-12-14T00:46:08.656Z,78.76
2022-12-14T00:48:36.150Z,77.72
2022-12-14T00:51:03.554Z,77.64
2022-12-14T00:53:30.663Z,77.39
2022-12-14T00:55:57.772Z,76.80
2022-12-14T00:58:25.782Z,77.65
2022-12-14T01:01:07.934Z,77.47
2022-12-14T01:03:35.193Z,77.28
2022-12-14T01:06:02.654Z,76.85
2022-12-14T01:08:35.995Z,76.69
2022-12-14T01:11:07.820Z,77.57
2022-12-14T01:13:35.860Z,76.89
2022-12-14T01:16:08.943Z,74.91
2022-12-14T01:18:37.732Z,73.31
2022-12-14T01:21:13.602Z,71.71
2022-12-14T01:23:40.709Z,70.41
2022-12-14T01:26:07.609Z,70.72
2022-12-14T01:28:35.534Z,74.39
2022-12-14T01:31:10.518Z,73.90
2022-12-14T01:33:37.665Z,75.17
2022-12-14T01:36:10.310Z,75.46
2022-12-14T01:38:37.669Z,75.22
2022-12-14T01:41:05.979Z,75.91
2022-12-14T01:43:52.498Z,75.82
2022-12-14T01:46:38.741Z,75.98
2022-12-14T01:49:28.727Z,76.33
2022-12-14T01:52:11.693Z,76.13
2022-12-14T01:54:48.955Z,75.82
2022-12-14T01:57:19.365Z,75.70
2022-12-14T01:59:48.446Z,75.74
2022-12-14T02:02:18.023Z,75.31
2022-12-14T02:04:54.331Z,74.51
2022-12-14T02:07:23.041Z,74.25
2022-12-14T02:09:52.433Z,73.98
2022-12-14T02:12:35.056Z,74.42
2022-12-14T02:15:03.264Z,74.58
2022-12-14T02:17:30.271Z,73.59
2022-12-14T02:19:58.524Z,73.40
2022-12-14T02:22:52.742Z,72.82
2022-12-14T02:26:03.854Z,73.47
2022-12-14T02:29:07.666Z,72.79
2022-12-14T02:31:57.728Z,71.03
2022-12-14T02:34:24.571Z,71.76
2022-12-14T02:37:07.282Z,73.38
2022-12-14T02:39:52.720Z,72.44
2022-12-14T02:42:38.083Z,72.84
2022-12-14T02:45:43.235Z,74.43
2022-12-14T02:48:20.146Z,74.80
2022-12-14T02:51:26.022Z,76.51
2022-12-14T02:54:01.067Z,77.18
2022-12-14T02:56:44.566Z,78.36
2022-12-14T02:59:12.310Z,78.50
2022-12-14T03:01:41.965Z,79.78
2022-12-14T03:04:14.681Z,80.32
2022-12-14T03:07:02.756Z,79.08
2022-12-14T03:09:32.747Z,78.91
2022-12-14T03:12:10.226Z,79.69
2022-12-14T03:14:45.127Z,80.70
2022-12-14T03:17:19.970Z,80.97
2022-12-14T03:20:12.660Z,81.48
2022-12-14T03:22:51.110Z,83.49
2022-12-14T03:25:26.985Z,84.46
2022-12-14T03:28:03.164Z,83.09
2022-12-14T03:30:58.938Z,81.92
2022-12-14T03:33:22.639Z,81.83
2022-12-14T03:36:02.529Z,82.11
2022-12-14T03:38:32.754Z,81.92
2022-12-14T03:41:13.370Z,81.89
2022-12-14T03:43:58.260Z,80.61
2022-12-14T03:47:10.075Z,80.47
2022-12-14T03:50:09.231Z,80.74
2022-12-14T03:52:42.906Z,80.54
2022-12-14T03:55:31.016Z,80.05
2022-12-14T03:58:04.067Z,80.13
2022-12-14T04:00:37.516Z,79.74
2022-12-14T04:03:29.933Z,78.94
2022-12-14T04:06:09.203Z,78.27
2022-12-14T04:09:15.764Z,80.49
2022-12-14T04:12:11.770Z,79.53
2022-12-14T04:15:04.996Z,79.25
2022-12-14T04:18:11.365Z,77.62
2022-12-14T04:20:48.333Z,75.06
2022-12-14T04:23:40.681Z,75.22
2022-12-14T04:26:13.888Z,75.61
2022-12-14T04:29:19.562Z,77.69
2022-12-14T04:31:53.773Z,79.11
2022-12-14T04:34:24.568Z,78.24
2022-12-14T04:36:56.146Z,77.19
2022-12-14T04:39:36.009Z,80.23
2022-12-14T04:42:06.808Z,80.49
2022-12-14T04:44:40.391Z,79.10
2022-12-14T04:47:10.485Z,77.40
2022-12-14T04:49:45.430Z,75.17
2022-12-14T04:52:40.454Z,73.91
2022-12-14T04:55:38.798Z,75.12
2022-12-14T04:58:14.848Z,77.25
2022-12-14T05:01:16.711Z,78.54
2022-12-14T05:04:01.103Z,77.45
2022-12-14T05:07:00.053Z,76.68
2022-12-14T05:09:34.808Z,75.65
2022-12-14T05:12:20.300Z,75.24
2022-12-14T05:14:59.246Z,74.89
2022-12-14T05:17:27.244Z,75.24
2022-12-14T05:19:54.526Z,74.72
2022-12-14T05:22:21.724Z,75.88
2022-12-14T05:24:48.861Z,75.05
2022-12-14T05:27:15.997Z,75.79
2022-12-14T05:29:43.187Z,75.99
2022-12-14T05:32:13.087Z,76.10
2022-12-14T05:34:40.566Z,76.30
2022-12-14T05:37:09.567Z,77.28
2022-12-14T05:39:40.075Z,76.89
2022-12-14T05:42:07.001Z,74.56
2022-12-14T05:44:33.841Z,72.50
2022-12-14T05:47:00.976Z,71.39
2022-12-14T05:49:27.874Z,72.76
2022-12-14T05:51:54.816Z,72.17
2022-12-14T05:54:21.780Z,72.51
2022-12-14T05:56:48.720Z,71.29
2022-12-14T05:59:17.374Z,71.79
2022-12-14T06:01:45.648Z,70.36
2022-12-14T06:04:17.448Z,70.22
2022-12-14T06:06:44.700Z,69.72
2022-12-14T06:09:15.851Z,68.77
2022-12-14T06:11:44.216Z,68.86
2022-12-14T06:14:12.152Z,68.37
2022-12-14T06:16:44.713Z,70.47
2022-12-14T06:19:12.946Z,71.32
2022-12-14T06:21:41.766Z,70.38
2022-12-14T06:24:10.963Z,69.19
2022-12-14T06:26:41.795Z,68.43
2022-12-14T06:29:19.500Z,69.90
2022-12-14T06:31:49.228Z,70.61
2022-12-14T06:34:17.350Z,71.47
2022-12-14T06:36:44.433Z,71.16
2022-12-14T06:39:14.151Z,72.12
2022-12-14T06:41:41.402Z,71.17
2022-12-14T06:44:12.019Z,71.44
2022-12-14T06:46:41.037Z,73.97
2022-12-14T06:49:08.408Z,71.72
2022-12-14T06:51:42.086Z,69.87
2022-12-14T06:54:11.437Z,69.14
2022-12-14T06:56:39.201Z,70.95
2022-12-14T06:59:06.398Z,69.84
2022-12-14T07:01:33.508Z,69.54
2022-12-14T07:04:00.618Z,67.28
2022-12-14T07:06:33.208Z,66.53
2022-12-14T07:09:00.794Z,68.48
2022-12-14T07:11:29.570Z,67.31
2022-12-14T07:13:57.333Z,65.61
2022-12-14T07:16:26.219Z,63.28
2022-12-14T07:18:54.338Z,63.11
2022-12-14T07:21:23.004Z,62.74
2022-12-14T07:23:52.533Z,62.60
2022-12-14T07:26:23.885Z,63.14
2022-12-14T07:28:51.399Z,65.12
2022-12-14T07:31:21.631Z,66.84
2022-12-14T07:33:49.700Z,67.28
2022-12-14T07:36:19.516Z,69.49
2022-12-14T07:38:48.904Z,67.90
2022-12-14T07:41:22.643Z,68.64
2022-12-14T07:43:51.559Z,66.23
2022-12-14T07:46:21.585Z,66.85
2022-12-14T07:48:50.896Z,68.00
2022-12-14T07:51:20.965Z,68.05
2022-12-14T07:53:48.511Z,66.51
2022-12-14T07:56:18.984Z,64.75
2022-12-14T07:58:45.984Z,64.67
2022-12-14T08:01:14.680Z,65.19
2022-12-14T08:03:55.685Z,65.27
2022-12-14T08:06:24.505Z,63.02
2022-12-14T08:08:53.080Z,62.10
2022-12-14T08:11:22.433Z,63.08
2022-12-14T08:14:21.909Z,64.40
2022-12-14T08:16:50.377Z,66.75
2022-12-14T08:19:19.271Z,65.06
2022-12-14T08:21:46.266Z,64.93
2022-12-14T08:24:14.409Z,64.56
2022-12-14T08:26:41.326Z,63.48
2022-12-14T08:29:08.397Z,63.98
2022-12-14T08:31:35.382Z,64.85
2022-12-14T08:34:02.839Z,65.42
2022-12-14T08:36:33.298Z,64.16
2022-12-14T08:39:09.664Z,63.91
2022-12-14T08:41:36.696Z,61.94
2022-12-14T08:44:04.739Z,61.59
2022-12-14T08:46:34.819Z,61.74
2022-12-14T08:49:01.947Z,61.41
2022-12-14T08:51:29.731Z,60.96
2022-12-14T08:53:57.200Z,61.53
2022-12-14T08:56:27.013Z,59.45
2022-12-14T08:58:54.692Z,59.76
2022-12-14T09:01:33.305Z,59.94
2022-12-14T09:04:06.742Z,62.34
2022-12-14T09:06:36.062Z,62.83
2022-12-14T09:09:04.409Z,62.03
2022-12-14T09:11:31.282Z,62.09
2022-12-14T09:13:58.349Z,60.83
2022-12-14T09:16:28.878Z,62.15
2022-12-14T09:18:56.463Z,64.73
2022-12-14T09:21:24.166Z,67.56
2022-12-14T09:23:57.286Z,66.02
2022-12-14T09:26:26.617Z,66.17
2022-12-14T09:28:55.543Z,65.90
2022-12-14T09:31:24.536Z,64.91
2022-12-14T09:33:51.955Z,62.67
2022-12-14T09:36:24.386Z,61.96
2022-12-14T09:38:56.058Z,61.47
2022-12-14T09:42:01.032Z,61.36
2022-12-14T09:44:37.187Z,61.31
2022-12-14T09:47:26.986Z,61.11
2022-12-14T09:50:02.640Z,64.26
2022-12-14T09:52:59.064Z,65.85
2022-12-14T09:55:33.024Z,68.83
2022-12-14T09:58:16.767Z,69.72
2022-12-14T10:00:53.282Z,68.78
2022-12-14T10:03:36.594Z,68.66
2022-12-14T10:06:32.026Z,69.05
2022-12-14T10:09:17.671Z,71.89
2022-12-14T10:11:47.684Z,72.81
2022-12-14T10:14:51.677Z,73.82
2022-12-14T10:17:38.303Z,74.31
2022-12-14T10:20:18.599Z,72.16
2022-12-14T10:22:49.877Z,69.76
2022-12-14T10:25:22.877Z,68.62
2022-12-14T10:28:10.783Z,65.81
2022-12-14T10:30:42.281Z,60.86
2022-12-14T10:33:29.564Z,58.76
2022-12-14T10:36:18.142Z,61.38
2022-12-14T10:39:07.660Z,62.85
2022-12-14T10:41:43.845Z,63.24
2022-12-14T10:44:50.206Z,65.73
2022-12-14T10:47:26.610Z,62.14
2022-12-14T10:50:15.961Z,65.22
2022-12-14T10:52:45.487Z,63.96
2022-12-14T10:55:24.843Z,65.93
2022-12-14T10:57:51.733Z,67.52
2022-12-14T11:00:23.459Z,64.84
2022-12-14T11:02:54.953Z,66.08
2022-12-14T11:05:37.097Z,66.20
2022-12-14T11:08:08.335Z,66.85
2022-12-14T11:10:39.658Z,65.67
2022-12-14T11:13:17.473Z,66.44
2022-12-14T11:15:49.810Z,62.60
2022-12-14T11:18:16.807Z,58.78
2022-12-14T11:20:54.158Z,62.18
2022-12-14T11:23:26.035Z,63.55
2022-12-14T11:25:59.502Z,64.45
2022-12-14T11:28:58.783Z,64.13
2022-12-14T11:31:38.134Z,64.79
2022-12-14T11:34:22.549Z,66.88
2022-12-14T11:36:50.236Z,64.17
2022-12-14T11:39:25.421Z,64.60
2022-12-14T11:42:02.496Z,63.49
2022-12-14T11:44:33.707Z,66.13
2022-12-14T11:47:00.693Z,66.92
2022-12-14T11:49:39.731Z,66.39
2022-12-14T11:52:18.427Z,67.31
2022-12-14T11:54:50.134Z,66.51
2022-12-14T11:57:30.094Z,66.21
2022-12-14T12:00:01.403Z,65.21
2022-12-14T12:02:33.516Z,64.28
2022-12-14T12:05:10.847Z,64.74
2022-12-14T12:07:40.633Z,64.41
2022-12-14T12:10:18.760Z,65.71
2022-12-14T12:13:09.062Z,67.05
2022-12-14T12:15:43.418Z,67.24
2022-12-14T12:18:27.458Z,67.05
2022-12-14T12:21:18.868Z,68.46
2022-12-14T12:24:15.134Z,66.68
2022-12-14T12:26:50.518Z,65.68
2022-12-14T12:29:30.054Z,67.46
2022-12-14T12:31:58.909Z,68.40
2022-12-14T12:34:43.960Z,69.01
2022-12-14T12:37:28.260Z,70.85
2022-12-14T12:40:04.960Z,70.90
2022-12-14T12:42:45.997Z,71.98
2022-12-14T12:45:27.795Z,71.10
2022-12-14T12:48:19.633Z,70.89
2022-12-14T12:50:51.399Z,71.94
2022-12-14T12:53:28.443Z,72.28
2022-12-14T12:56:10.111Z,73.21
2022-12-14T12:58:39.384Z,73.31
2022-12-14T13:01:34.644Z,72.25
2022-12-14T13:04:10.444Z,72.18
2022-12-14T13:06:48.903Z,72.96
2022-12-14T13:09:45.200Z,73.07
2022-12-14T13:12:21.128Z,73.20
2022-12-14T13:14:50.429Z,73.54
2022-12-14T13:17:43.718Z,73.32
2022-12-14T13:20:27.465Z,73.89
2022-12-14T13:22:55.208Z,73.70
2022-12-14T13:25:27.346Z,74.08
2022-12-14T13:27:59.829Z,73.14
2022-12-14T13:30:29.767Z,74.33
2022-12-14T13:33:25.419Z,74.59
2022-12-14T13:36:20.091Z,74.26
2022-12-14T13:39:24.377Z,74.42
2022-12-14T13:42:23.700Z,74.55
2022-12-14T13:45:00.580Z,74.39
2022-12-14T13:47:55.475Z,74.52
2022-12-14T13:50:37.075Z,74.42
2022-12-14T13:53:25.078Z,74.69
2022-12-14T13:55:55.773Z,75.93
2022-12-14T13:58:44.742Z,76.17
2022-12-14T14:01:14.782Z,75.83
2022-12-14T14:03:46.834Z,74.84
2022-12-14T14:06:36.005Z,75.43
2022-12-14T14:09:30.457Z,75.59
2022-12-14T14:12:34.161Z,75.73
2022-12-14T14:15:30.759Z,75.52
2022-12-14T14:18:07.032Z,75.86
2022-12-14T14:20:41.241Z,75.85
2022-12-14T14:23:14.310Z,76.15
2022-12-14T14:25:41.448Z,76.08
2022-12-14T14:28:15.240Z,75.93
2022-12-14T14:30:58.668Z,75.78
2022-12-14T14:33:54.913Z,76.76
2022-12-14T14:36:36.977Z,77.03
2022-12-14T14:39:31.224Z,76.57
2022-12-14T14:41:54.804Z,76.69
2022-12-14T14:45:08.245Z,76.47
2022-12-14T14:47:40.427Z,76.20
2022-12-14T14:50:30.311Z,76.18
2022-12-14T14:53:01.072Z,76.91
2022-12-14T14:55:53.378Z,76.23
2022-12-14T14:58:22.497Z,77.42
2022-12-14T15:01:02.769Z,77.11
2022-12-14T15:03:43.526Z,77.79
2022-12-14T15:06:21.474Z,78.26
2022-12-14T15:08:57.237Z,77.83
2022-12-14T15:11:26.869Z,78.04
2022-12-14T15:14:00.578Z,78.01
2022-12-14T15:16:32.399Z,77.63
2022-12-14T15:19:33.514Z,78.04
2022-12-14T15:22:05.702Z,79.00
2022-12-14T15:24:41.468Z,77.68
2022-12-14T15:27:25.648Z,78.37
2022-12-14T15:29:53.118Z,78.11
2022-12-14T15:32:22.844Z,77.60
2022-12-14T15:35:02.611Z,78.97
2022-12-14T15:37:41.903Z,78.42
2022-12-14T15:40:16.729Z,78.53
2022-12-14T15:42:53.887Z,78.95
2022-12-14T15:45:27.756Z,78.89
2022-12-14T15:47:55.111Z,79.96
2022-12-14T15:50:32.401Z,80.35
2022-12-14T15:53:24.948Z,79.24
2022-12-14T15:56:00.227Z,78.78
2022-12-14T15:58:35.004Z,78.54
2022-12-14T16:01:11.671Z,78.28
2022-12-14T16:03:43.442Z,79.04
2022-12-14T16:06:12.457Z,78.11
2022-12-14T16:08:51.892Z,77.90
2022-12-14T16:11:35.249Z,78.87
2022-12-14T16:14:07.700Z,78.09
2022-12-14T16:16:35.117Z,78.47
2022-12-14T16:19:25.830Z,78.44
2022-12-14T16:22:09.303Z,79.26
2022-12-14T16:24:38.674Z,79.54
2022-12-14T16:27:05.727Z,80.19
2022-12-14T16:29:34.400Z,79.78
2022-12-14T16:32:15.619Z,80.28
2022-12-14T16:34:48.186Z,80.68
2022-12-14T16:37:33.995Z,80.54
2022-12-14T16:40:01.792Z,81.46
2022-12-14T16:42:32.330Z,81.43
2022-12-14T16:44:59.504Z,82.16
2022-12-14T16:47:29.241Z,82.44
2022-12-14T16:49:59.913Z,83.33
2022-12-14T16:52:31.392Z,82.06
2022-12-14T16:55:15.092Z,81.60
2022-12-14T16:57:48.026Z,81.46
2022-12-14T17:00:30.659Z,83.09
2022-12-14T17:03:08.113Z,83.60
2022-12-14T17:05:39.819Z,84.39
2022-12-14T17:08:07.925Z,84.74
2022-12-14T17:10:35.843Z,84.72
2022-12-14T17:13:04.024Z,84.62
2022-12-14T17:15:34.552Z,85.49
2022-12-14T17:18:04.747Z,85.47
2022-12-14T17:20:39.367Z,86.20
2022-12-14T17:23:12.396Z,86.37
2022-12-14T17:25:44.605Z,86.92
2022-12-14T17:28:27.295Z,87.25
2022-12-14T17:30:57.787Z,88.40
2022-12-14T17:33:26.760Z,88.98
2022-12-14T17:35:55.770Z,89.26
2022-12-14T17:38:23.312Z,89.52
2022-12-14T17:40:51.876Z,88.90
2022-12-14T17:43:22.413Z,88.82
2022-12-14T17:45:49.717Z,89.57
2022-12-14T17:48:17.834Z,89.94
2022-12-14T17:50:47.995Z,89.77
2022-12-14T17:53:17.022Z,90.39
2022-12-14T17:55:44.589Z,89.79
2022-12-14T17:58:11.538Z,90.18
2022-12-14T18:00:57.571Z,88.91
2022-12-14T18:03:24.951Z,89.51
2022-12-14T18:05:52.620Z,89.39
2022-12-14T18:08:21.053Z,89.22
2022-12-14T18:10:53.964Z,89.38
2022-12-14T18:13:21.381Z,88.95
2022-12-14T18:15:54.053Z,89.76
2022-12-14T18:18:24.158Z,89.87
2022-12-14T18:20:54.034Z,90.24
2022-12-14T18:23:22.525Z,90.25
2022-12-14T18:25:55.088Z,90.00
2022-12-14T18:28:22.509Z,89.68
2022-12-14T18:31:09.024Z,89.29
2022-12-14T18:33:36.147Z,89.38
2022-12-14T18:36:03.199Z,88.38
2022-12-14T18:38:30.165Z,88.26
2022-12-14T18:40:58.898Z,86.87
2022-12-14T18:43:28.178Z,87.55
2022-12-14T18:45:56.582Z,86.44
2022-12-14T18:48:24.442Z,86.72
2022-12-14T18:50:53.245Z,86.93
2022-12-14T18:53:22.769Z,86.29
2022-12-14T18:55:50.388Z,86.09
2022-12-14T18:58:22.829Z,86.17
2022-12-14T19:00:52.038Z,84.39
2022-12-14T19:03:19.712Z,84.32
2022-12-14T19:05:47.560Z,84.14
2022-12-14T19:08:14.532Z,83.60
2022-12-14T19:10:44.476Z,84.83
2022-12-14T19:13:23.270Z,85.81
2022-12-14T19:15:52.572Z,85.17
2022-12-14T19:18:19.699Z,86.51
2022-12-14T19:20:49.599Z,86.90
2022-12-14T19:23:18.896Z,87.63
2022-12-14T19:25:46.639Z,87.99
2022-12-14T19:31:01.888Z,87.78
2022-12-14T19:33:30.151Z,87.73
2022-12-14T19:35:57.521Z,88.24
2022-12-14T19:38:24.555Z,88.28
2022-12-14T19:41:06.472Z,88.70
2022-12-14T19:43:34.515Z,87.69
2022-12-14T19:46:09.688Z,87.39
2022-12-14T19:48:38.269Z,87.73
2022-12-14T19:51:13.324Z,88.40
2022-12-14T19:53:42.744Z,88.46
2022-12-14T19:56:10.696Z,88.29
2022-12-14T19:58:37.573Z,88.63
2022-12-14T20:01:08.930Z,89.11
2022-12-14T20:03:37.532Z,88.61
2022-12-14T20:06:05.696Z,88.97
2022-12-14T20:08:33.571Z,87.38
2022-12-14T20:11:05.894Z,86.92
2022-12-14T20:13:33.421Z,87.07
2022-12-14T20:16:02.139Z,87.44
2022-12-14T20:18:30.518Z,87.13
2022-12-14T20:21:08.947Z,86.62
2022-12-14T20:23:37.843Z,86.55
2022-12-14T20:26:10.935Z,86.45
2022-12-14T20:28:37.890Z,85.92
2022-12-14T20:31:06.764Z,85.86
2022-12-14T20:33:34.675Z,84.97
2022-12-14T20:36:02.053Z,85.30
2022-12-14T20:38:29.063Z,84.53
2022-12-14T20:40:56.163Z,84.80
2022-12-14T20:43:23.523Z,85.20
2022-12-14T20:45:50.419Z,85.03
2022-12-14T20:48:17.262Z,85.15
2022-12-14T20:50:44.526Z,85.56
2022-12-14T20:53:18.117Z,86.47
2022-12-14T20:55:45.077Z,85.79
2022-12-14T20:58:12.068Z,85.86
2022-12-14T21:00:39.026Z,86.34
2022-12-14T21:03:06.166Z,86.92
2022-12-14T21:05:33.175Z,87.46
2022-12-14T21:08:00.091Z,87.50
2022-12-14T21:10:27.045Z,87.65
2022-12-14T21:12:53.971Z,87.72
2022-12-14T21:15:20.905Z,87.44
2022-12-14T21:17:47.812Z,87.86
2022-12-14T21:20:14.781Z,88.68
2022-12-14T21:22:41.728Z,87.98
2022-12-14T21:25:09.075Z,88.50
2022-12-14T21:27:38.823Z,88.35
2022-12-14T21:30:08.772Z,87.42
2022-12-14T21:32:38.519Z,87.12
2022-12-14T21:35:06.428Z,86.71
2022-12-14T21:37:33.392Z,87.24
2022-12-14T21:40:03.277Z,86.50
2022-12-14T21:42:30.218Z,86.92
2022-12-14T21:44:57.823Z,87.18
2022-12-14T21:47:27.463Z,86.66
2022-12-14T21:49:55.255Z,87.52
2022-12-14T21:52:25.140Z,86.71
2022-12-14T21:54:52.088Z,86.44
2022-12-14T21:57:40.245Z,85.83
2022-12-14T22:00:08.785Z,86.61
2022-12-14T22:02:42.408Z,87.12
2022-12-14T22:05:10.726Z,86.62
2022-12-14T22:07:37.891Z,86.99
2022-12-14T22:10:05.335Z,87.08
2022-12-14T22:12:32.285Z,87.44
2022-12-14T22:14:59.212Z,87.02
2022-12-14T22:17:26.187Z,87.88
2022-12-14T22:19:55.256Z,86.49
2022-12-14T22:22:22.688Z,85.96
2022-12-14T22:24:51.250Z,86.92
2022-12-14T22:27:18.722Z,86.83
2022-12-14T22:29:45.695Z,86.81
2022-12-14T22:32:13.060Z,86.59
2022-12-14T22:34:40.084Z,86.75
2022-12-14T22:37:07.094Z,86.91
2022-12-14T22:39:34.123Z,87.12
2022-12-14T22:42:01.065Z,87.52
2022-12-14T22:44:27.985Z,87.94
2022-12-14T22:46:55.072Z,87.93
2022-12-14T22:49:21.944Z,87.26
2022-12-14T22:51:48.870Z,87.75
2022-12-14T22:54:21.063Z,88.86
2022-12-14T22:56:53.809Z,88.18
2022-12-14T22:59:34.078Z,88.55
2022-12-14T23:02:01.142Z,89.05
2022-12-14T23:04:28.321Z,89.23
2022-12-14T23:06:55.666Z,88.79
2022-12-14T23:09:41.156Z,89.24
2022-12-14T23:12:26.479Z,90.15
2022-12-14T23:15:12.130Z,90.41
2022-12-14T23:17:57.709Z,90.47
2022-12-14T23:20:43.346Z,90.10
2022-12-14T23:23:29.344Z,90.02
2022-12-14T23:26:15.056Z,89.55
2022-12-14T23:29:00.501Z,90.25
2022-12-14T23:31:46.100Z,90.09
2022-12-14T23:34:31.781Z,90.55
2022-12-14T23:37:20.495Z,91.32
2022-12-14T23:40:06.526Z,92.10
2022-12-14T23:42:52.056Z,92.58
2022-12-14T23:45:37.607Z,93.40
2022-12-14T23:48:23.290Z,94.41
2022-12-14T23:51:08.873Z,95.23
2022-12-14T23:53:54.192Z,96.82
2022-12-14T23:56:39.914Z,98.86
2022-12-14T23:59:31.439Z,100.00
